sensor_id;sensor_type;location;lat;lon;timestamp;pressure;altitude;pressure_sealevel;temperature;humidity
57847;BME280;43675;50.030;21.952;2023-02-02T00:00:44;97740.31;;;1.79;75.67
57847;BME280;43675;50.030;21.952;2023-02-02T00:03:29;97735.72;;;1.95;75.49
57847;BME280;43675;50.030;21.952;2023-02-02T00:05:55;97735.75;;;2.08;75.18
57847;BME280;43675;50.030;21.952;2023-02-02T00:08:22;97733.51;;;2.18;75.00
57847;BME280;43675;50.030;21.952;2023-02-02T00:10:49;97729.16;;;2.26;74.87
57847;BME280;43675;50.030;21.952;2023-02-02T00:13:15;97732.48;;;2.33;74.89
57847;BME280;43675;50.030;21.952;2023-02-02T00:15:42;97729.93;;;2.40;74.78
57847;BME280;43675;50.030;21.952;2023-02-02T00:18:09;97722.71;;;2.46;74.77
57847;BME280;43675;50.030;21.952;2023-02-02T00:20:35;97726.40;;;2.50;74.59
57847;BME280;43675;50.030;21.952;2023-02-02T00:23:02;97728.09;;;2.49;74.39
57847;BME280;43675;50.030;21.952;2023-02-02T00:25:29;97727.31;;;2.37;74.84
57847;BME280;43675;50.030;21.952;2023-02-02T00:27:56;97727.92;;;2.42;74.81
57847;BME280;43675;50.030;21.952;2023-02-02T00:30:22;97726.59;;;2.53;74.63
57847;BME280;43675;50.030;21.952;2023-02-02T00:32:49;97727.01;;;2.61;74.46
57847;BME280;43675;50.030;21.952;2023-02-02T00:35:16;97724.05;;;2.67;74.46
57847;BME280;43675;50.030;21.952;2023-02-02T00:37:43;97724.13;;;2.73;74.44
57847;BME280;43675;50.030;21.952;2023-02-02T00:40:10;97719.63;;;2.76;74.17
57847;BME280;43675;50.030;21.952;2023-02-02T00:42:37;97718.83;;;2.70;74.35
57847;BME280;43675;50.030;21.952;2023-02-02T00:45:04;97719.76;;;2.54;74.61
57847;BME280;43675;50.030;21.952;2023-02-02T00:47:30;97714.96;;;2.41;74.94
57847;BME280;43675;50.030;21.952;2023-02-02T00:49:57;97713.56;;;2.32;74.98
57847;BME280;43675;50.030;21.952;2023-02-02T00:52:23;97706.15;;;2.26;75.07
57847;BME280;43675;50.030;21.952;2023-02-02T00:54:50;97703.34;;;2.22;75.34
57847;BME280;43675;50.030;21.952;2023-02-02T00:57:16;97701.29;;;2.18;75.03
57847;BME280;43675;50.030;21.952;2023-02-02T00:59:43;97702.17;;;2.16;75.29
57847;BME280;43675;50.030;21.952;2023-02-02T01:02:10;97701.61;;;2.13;75.19
57847;BME280;43675;50.030;21.952;2023-02-02T01:04:38;97697.24;;;2.13;75.51
57847;BME280;43675;50.030;21.952;2023-02-02T01:07:05;97694.45;;;2.28;75.16
57847;BME280;43675;50.030;21.952;2023-02-02T01:09:31;97697.94;;;2.45;74.99
57847;BME280;43675;50.030;21.952;2023-02-02T01:11:58;97697.98;;;2.41;74.72
57847;BME280;43675;50.030;21.952;2023-02-02T01:14:25;97697.70;;;2.30;75.06
57847;BME280;43675;50.030;21.952;2023-02-02T01:16:51;97696.66;;;2.22;75.01
57847;BME280;43675;50.030;21.952;2023-02-02T01:19:18;97696.60;;;2.15;75.32
57847;BME280;43675;50.030;21.952;2023-02-02T01:21:44;97693.21;;;2.10;75.36
57847;BME280;43675;50.030;21.952;2023-02-02T01:24:11;97692.38;;;2.08;75.34
57847;BME280;43675;50.030;21.952;2023-02-02T01:26:37;97687.61;;;2.05;75.81
57847;BME280;43675;50.030;21.952;2023-02-02T01:29:04;97684.77;;;2.02;75.61
57847;BME280;43675;50.030;21.952;2023-02-02T01:31:30;97685.72;;;2.00;75.80
57847;BME280;43675;50.030;21.952;2023-02-02T01:33:57;97682.00;;;1.99;75.85
57847;BME280;43675;50.030;21.952;2023-02-02T01:36:24;97680.39;;;1.98;76.04
57847;BME280;43675;50.030;21.952;2023-02-02T01:38:50;97677.61;;;1.96;76.22
57847;BME280;43675;50.030;21.952;2023-02-02T01:41:20;97677.02;;;1.95;76.01
57847;BME280;43675;50.030;21.952;2023-02-02T01:43:51;97677.98;;;1.94;76.23
57847;BME280;43675;50.030;21.952;2023-02-02T01:46:32;97675.48;;;1.95;76.26
57847;BME280;43675;50.030;21.952;2023-02-02T01:49:12;97676.08;;;1.97;76.28
57847;BME280;43675;50.030;21.952;2023-02-02T01:52:00;97671.13;;;2.16;76.30
57847;BME280;43675;50.030;21.952;2023-02-02T01:54:35;97674.86;;;2.35;75.90
57847;BME280;43675;50.030;21.952;2023-02-02T01:57:07;97672.92;;;2.50;75.44
57847;BME280;43675;50.030;21.952;2023-02-02T01:59:35;97666.11;;;2.59;75.17
57847;BME280;43675;50.030;21.952;2023-02-02T02:02:02;97663.28;;;2.66;75.13
57847;BME280;43675;50.030;21.952;2023-02-02T02:04:30;97663.23;;;2.72;75.34
57847;BME280;43675;50.030;21.952;2023-02-02T02:06:59;97666.58;;;2.78;75.31
57847;BME280;43675;50.030;21.952;2023-02-02T02:09:27;97663.27;;;2.82;75.27
57847;BME280;43675;50.030;21.952;2023-02-02T02:11:53;97663.38;;;2.85;74.98
57847;BME280;43675;50.030;21.952;2023-02-02T02:14:21;97665.61;;;2.89;75.13
57847;BME280;43675;50.030;21.952;2023-02-02T02:20:14;97661.33;;;2.93;74.89
57847;BME280;43675;50.030;21.952;2023-02-02T02:39:03;97672.14;;;3.08;74.50
57847;BME280;43675;50.030;21.952;2023-02-02T02:41:38;97672.61;;;3.12;74.58
57847;BME280;43675;50.030;21.952;2023-02-02T02:44:09;97671.53;;;3.13;74.46
57847;BME280;43675;50.030;21.952;2023-02-02T02:46:37;97669.38;;;3.15;74.19
57847;BME280;43675;50.030;21.952;2023-02-02T02:49:07;97675.26;;;3.16;74.25
57847;BME280;43675;50.030;21.952;2023-02-02T02:51:51;97677.50;;;3.16;74.43
57847;BME280;43675;50.030;21.952;2023-02-02T02:54:30;97679.14;;;3.16;74.40
57847;BME280;43675;50.030;21.952;2023-02-02T03:03:18;97689.72;;;3.14;74.31
57847;BME280;43675;50.030;21.952;2023-02-02T03:06:03;97688.15;;;3.12;74.44
57847;BME280;43675;50.030;21.952;2023-02-02T03:11:04;97696.29;;;3.08;74.23
57847;BME280;43675;50.030;21.952;2023-02-02T03:13:32;97703.09;;;2.90;74.36
57847;BME280;43675;50.030;21.952;2023-02-02T03:16:00;97704.22;;;2.75;74.89
57847;BME280;43675;50.030;21.952;2023-02-02T03:18:28;97704.73;;;2.79;74.88
57847;BME280;43675;50.030;21.952;2023-02-02T03:20:56;97710.31;;;2.86;74.88
57847;BME280;43675;50.030;21.952;2023-02-02T03:23:22;97709.88;;;2.88;74.62
57847;BME280;43675;50.030;21.952;2023-02-02T03:25:49;97715.34;;;2.88;74.34
57847;BME280;43675;50.030;21.952;2023-02-02T03:28:16;97719.14;;;2.84;74.52
57847;BME280;43675;50.030;21.952;2023-02-02T03:30:45;97715.48;;;2.81;74.58
57847;BME280;43675;50.030;21.952;2023-02-02T03:33:13;97720.48;;;2.79;74.52
57847;BME280;43675;50.030;21.952;2023-02-02T03:35:40;97724.99;;;2.71;74.43
57847;BME280;43675;50.030;21.952;2023-02-02T03:38:07;97724.36;;;2.64;74.73
57847;BME280;43675;50.030;21.952;2023-02-02T03:40:33;97725.05;;;2.58;74.68
57847;BME280;43675;50.030;21.952;2023-02-02T03:43:00;97732.16;;;2.52;74.81
57847;BME280;43675;50.030;21.952;2023-02-02T03:45:27;97732.61;;;2.48;74.88
57847;BME280;43675;50.030;21.952;2023-02-02T03:47:54;97731.23;;;2.45;75.08
57847;BME280;43675;50.030;21.952;2023-02-02T03:50:21;97730.59;;;2.43;75.19
57847;BME280;43675;50.030;21.952;2023-02-02T03:52:47;97733.39;;;2.39;75.03
57847;BME280;43675;50.030;21.952;2023-02-02T03:55:14;97735.81;;;2.36;75.27
57847;BME280;43675;50.030;21.952;2023-02-02T03:57:40;97734.10;;;2.36;75.14
57847;BME280;43675;50.030;21.952;2023-02-02T04:00:08;97737.77;;;2.26;75.49
57847;BME280;43675;50.030;21.952;2023-02-02T04:02:35;97737.65;;;2.08;75.79
57847;BME280;43675;50.030;21.952;2023-02-02T04:05:02;97741.34;;;2.10;75.91
57847;BME280;43675;50.030;21.952;2023-02-02T04:07:28;97738.80;;;2.16;75.61
57847;BME280;43675;50.030;21.952;2023-02-02T04:09:55;97740.95;;;2.20;75.86
57847;BME280;43675;50.030;21.952;2023-02-02T04:12:21;97746.88;;;2.23;75.56
57847;BME280;43675;50.030;21.952;2023-02-02T04:14:48;97748.67;;;2.21;75.67
57847;BME280;43675;50.030;21.952;2023-02-02T04:17:14;97753.44;;;2.19;75.89
57847;BME280;43675;50.030;21.952;2023-02-02T04:19:41;97754.84;;;2.21;75.63
57847;BME280;43675;50.030;21.952;2023-02-02T04:22:07;97755.09;;;2.16;75.72
57847;BME280;43675;50.030;21.952;2023-02-02T04:24:34;97761.55;;;1.99;76.08
57847;BME280;43675;50.030;21.952;2023-02-02T04:27:00;97763.67;;;1.86;76.49
57847;BME280;43675;50.030;21.952;2023-02-02T04:29:27;97768.45;;;1.75;76.49
57847;BME280;43675;50.030;21.952;2023-02-02T04:31:54;97774.71;;;1.67;76.73
57847;BME280;43675;50.030;21.952;2023-02-02T04:34:20;97768.66;;;1.60;77.03
57847;BME280;43675;50.030;21.952;2023-02-02T04:36:47;97772.91;;;1.56;77.15
57847;BME280;43675;50.030;21.952;2023-02-02T04:39:13;97773.91;;;1.52;77.33
57847;BME280;43675;50.030;21.952;2023-02-02T04:41:40;97784.18;;;1.49;77.46
57847;BME280;43675;50.030;21.952;2023-02-02T04:44:12;97778.83;;;1.44;77.49
57847;BME280;43675;50.030;21.952;2023-02-02T04:46:39;97783.37;;;1.43;77.66
57847;BME280;43675;50.030;21.952;2023-02-02T04:49:08;97778.15;;;1.61;77.48
57847;BME280;43675;50.030;21.952;2023-02-02T04:51:35;97789.40;;;1.77;77.18
57847;BME280;43675;50.030;21.952;2023-02-02T04:54:01;97788.58;;;1.87;77.06
57847;BME280;43675;50.030;21.952;2023-02-02T04:56:28;97791.80;;;1.94;77.08
57847;BME280;43675;50.030;21.952;2023-02-02T04:58:55;97792.61;;;2.00;76.98
57847;BME280;43675;50.030;21.952;2023-02-02T05:01:21;97797.27;;;2.06;76.72
57847;BME280;43675;50.030;21.952;2023-02-02T05:03:48;97802.55;;;2.07;76.65
57847;BME280;43675;50.030;21.952;2023-02-02T05:06:17;97807.58;;;1.95;76.82
57847;BME280;43675;50.030;21.952;2023-02-02T05:08:45;97805.16;;;1.84;77.23
57847;BME280;43675;50.030;21.952;2023-02-02T05:11:15;97812.23;;;1.93;77.18
57847;BME280;43675;50.030;21.952;2023-02-02T05:13:52;97811.68;;;2.06;76.88
57847;BME280;43675;50.030;21.952;2023-02-02T05:16:20;97812.98;;;2.14;76.81
57847;BME280;43675;50.030;21.952;2023-02-02T05:18:52;97812.42;;;2.20;76.50
57847;BME280;43675;50.030;21.952;2023-02-02T05:21:20;97815.48;;;2.27;76.42
57847;BME280;43675;50.030;21.952;2023-02-02T05:23:47;97813.16;;;2.33;76.34
57847;BME280;43675;50.030;21.952;2023-02-02T05:26:17;97817.15;;;2.38;76.33
57847;BME280;43675;50.030;21.952;2023-02-02T05:28:44;97815.64;;;2.42;76.37
57847;BME280;43675;50.030;21.952;2023-02-02T05:31:11;97821.67;;;2.30;76.22
57847;BME280;43675;50.030;21.952;2023-02-02T05:33:37;97829.02;;;2.13;76.52
57847;BME280;43675;50.030;21.952;2023-02-02T05:36:05;97829.11;;;2.01;76.91
57847;BME280;43675;50.030;21.952;2023-02-02T05:38:32;97827.05;;;1.94;76.96
57847;BME280;43675;50.030;21.952;2023-02-02T05:41:00;97835.02;;;2.06;77.00
57847;BME280;43675;50.030;21.952;2023-02-02T05:43:27;97833.00;;;2.14;76.95
57847;BME280;43675;50.030;21.952;2023-02-02T05:45:55;97838.76;;;2.23;76.70
57847;BME280;43675;50.030;21.952;2023-02-02T05:48:22;97840.14;;;2.33;76.51
57847;BME280;43675;50.030;21.952;2023-02-02T05:50:56;97841.96;;;2.42;76.27
57847;BME280;43675;50.030;21.952;2023-02-02T05:53:24;97843.04;;;2.46;76.07
57847;BME280;43675;50.030;21.952;2023-02-02T05:55:51;97850.73;;;2.49;76.17
57847;BME280;43675;50.030;21.952;2023-02-02T05:58:17;97848.84;;;2.50;75.96
57847;BME280;43675;50.030;21.952;2023-02-02T06:00:44;97849.70;;;2.54;75.79
57847;BME280;43675;50.030;21.952;2023-02-02T06:03:10;97850.45;;;2.58;75.84
57847;BME280;43675;50.030;21.952;2023-02-02T06:05:37;97851.16;;;2.62;75.70
57847;BME280;43675;50.030;21.952;2023-02-02T06:08:05;97853.38;;;2.64;75.52
57847;BME280;43675;50.030;21.952;2023-02-02T06:10:31;97844.02;;;2.66;75.69
57847;BME280;43675;50.030;21.952;2023-02-02T06:12:58;97850.28;;;2.68;75.60
57847;BME280;43675;50.030;21.952;2023-02-02T06:15:24;97851.19;;;2.71;75.36
57847;BME280;43675;50.030;21.952;2023-02-02T06:17:51;97853.77;;;2.73;75.55
57847;BME280;43675;50.030;21.952;2023-02-02T06:20:18;97850.76;;;2.73;75.27
57847;BME280;43675;50.030;21.952;2023-02-02T06:22:44;97852.77;;;2.74;75.10
57847;BME280;43675;50.030;21.952;2023-02-02T06:25:12;97850.48;;;2.75;75.21
57847;BME280;43675;50.030;21.952;2023-02-02T06:27:39;97849.02;;;2.75;75.25
57847;BME280;43675;50.030;21.952;2023-02-02T06:30:06;97849.80;;;2.78;75.07
57847;BME280;43675;50.030;21.952;2023-02-02T06:32:32;97848.13;;;2.81;74.95
57847;BME280;43675;50.030;21.952;2023-02-02T06:34:59;97850.40;;;2.84;74.74
57847;BME280;43675;50.030;21.952;2023-02-02T06:37:25;97846.16;;;2.80;74.81
57847;BME280;43675;50.030;21.952;2023-02-02T06:39:52;97851.63;;;2.64;74.97
57847;BME280;43675;50.030;21.952;2023-02-02T06:42:18;97851.89;;;2.53;75.29
57847;BME280;43675;50.030;21.952;2023-02-02T06:44:45;97859.92;;;2.48;75.59
57847;BME280;43675;50.030;21.952;2023-02-02T06:47:12;97857.92;;;2.44;75.30
57847;BME280;43675;50.030;21.952;2023-02-02T06:49:38;97862.30;;;2.40;75.49
57847;BME280;43675;50.030;21.952;2023-02-02T06:52:06;97860.39;;;2.37;75.36
57847;BME280;43675;50.030;21.952;2023-02-02T06:54:32;97864.63;;;2.37;75.56
57847;BME280;43675;50.030;21.952;2023-02-02T06:56:59;97867.18;;;2.51;75.19
57847;BME280;43675;50.030;21.952;2023-02-02T06:59:26;97868.30;;;2.68;74.90
57847;BME280;43675;50.030;21.952;2023-02-02T07:01:52;97861.44;;;2.79;74.54
57847;BME280;43675;50.030;21.952;2023-02-02T07:04:19;97864.95;;;2.87;74.70
57847;BME280;43675;50.030;21.952;2023-02-02T07:06:46;97866.46;;;2.95;74.19
57847;BME280;43675;50.030;21.952;2023-02-02T07:09:12;97867.77;;;3.01;74.03
57847;BME280;43675;50.030;21.952;2023-02-02T07:11:39;97871.59;;;3.06;74.11
57847;BME280;43675;50.030;21.952;2023-02-02T07:14:05;97871.38;;;3.12;73.55
57847;BME280;43675;50.030;21.952;2023-02-02T07:16:32;97875.61;;;3.09;73.67
57847;BME280;43675;50.030;21.952;2023-02-02T07:18:58;97882.42;;;2.99;74.03
57847;BME280;43675;50.030;21.952;2023-02-02T07:21:26;97882.14;;;2.92;74.23
57847;BME280;43675;50.030;21.952;2023-02-02T07:23:52;97881.25;;;2.90;74.20
57847;BME280;43675;50.030;21.952;2023-02-02T07:26:19;97877.33;;;3.03;74.16
57847;BME280;43675;50.030;21.952;2023-02-02T07:28:46;97879.56;;;3.19;73.78
57847;BME280;43675;50.030;21.952;2023-02-02T07:31:20;97874.48;;;3.31;73.36
57847;BME280;43675;50.030;21.952;2023-02-02T07:33:47;97879.40;;;3.30;73.04
57847;BME280;43675;50.030;21.952;2023-02-02T07:36:16;97873.46;;;3.20;73.32
57847;BME280;43675;50.030;21.952;2023-02-02T07:38:44;97873.88;;;3.13;73.39
57847;BME280;43675;50.030;21.952;2023-02-02T07:41:12;97866.20;;;3.11;73.42
57847;BME280;43675;50.030;21.952;2023-02-02T07:43:39;97864.58;;;3.11;73.61
57847;BME280;43675;50.030;21.952;2023-02-02T07:46:07;97861.57;;;3.11;73.20
57847;BME280;43675;50.030;21.952;2023-02-02T07:48:34;97859.91;;;3.16;73.57
57847;BME280;43675;50.030;21.952;2023-02-02T07:51:02;97860.59;;;3.35;73.36
57847;BME280;43675;50.030;21.952;2023-02-02T07:53:29;97852.42;;;3.54;72.71
57847;BME280;43675;50.030;21.952;2023-02-02T07:56:12;97849.63;;;3.69;72.47
57847;BME280;43675;50.030;21.952;2023-02-02T07:58:39;97850.23;;;3.79;72.17
57847;BME280;43675;50.030;21.952;2023-02-02T08:01:08;97847.02;;;3.90;71.92
57847;BME280;43675;50.030;21.952;2023-02-02T08:03:36;97850.64;;;3.99;71.93
57847;BME280;43675;50.030;21.952;2023-02-02T08:06:16;97843.56;;;4.10;71.76
57847;BME280;43675;50.030;21.952;2023-02-02T08:08:43;97840.39;;;4.22;71.32
57847;BME280;43675;50.030;21.952;2023-02-02T08:11:12;97841.25;;;4.36;71.22
57847;BME280;43675;50.030;21.952;2023-02-02T08:13:40;97838.88;;;4.52;71.04
57847;BME280;43675;50.030;21.952;2023-02-02T08:16:07;97833.88;;;4.64;70.64
57847;BME280;43675;50.030;21.952;2023-02-02T08:18:34;97831.61;;;4.61;70.69
57847;BME280;43675;50.030;21.952;2023-02-02T08:21:03;97825.36;;;4.54;70.74
57847;BME280;43675;50.030;21.952;2023-02-02T08:23:30;97825.35;;;4.67;70.44
57847;BME280;43675;50.030;21.952;2023-02-02T08:26:17;97820.77;;;4.85;70.21
57847;BME280;43675;50.030;21.952;2023-02-02T08:28:48;97814.89;;;4.92;69.91
57847;BME280;43675;50.030;21.952;2023-02-02T08:31:18;97818.54;;;4.80;69.76
57847;BME280;43675;50.030;21.952;2023-02-02T08:33:45;97818.27;;;4.75;69.99
57847;BME280;43675;50.030;21.952;2023-02-02T08:36:13;97811.89;;;4.79;69.74
57847;BME280;43675;50.030;21.952;2023-02-02T08:38:40;97815.09;;;4.88;69.61
57847;BME280;43675;50.030;21.952;2023-02-02T08:41:09;97813.40;;;5.13;69.34
57847;BME280;43675;50.030;21.952;2023-02-02T08:43:36;97817.54;;;5.38;68.75
57847;BME280;43675;50.030;21.952;2023-02-02T08:46:03;97814.74;;;5.55;68.34
57847;BME280;43675;50.030;21.952;2023-02-02T08:48:29;97809.91;;;5.67;67.98
57847;BME280;43675;50.030;21.952;2023-02-02T08:50:57;97808.95;;;5.78;67.74
57847;BME280;43675;50.030;21.952;2023-02-02T08:53:25;97809.31;;;5.87;67.71
57847;BME280;43675;50.030;21.952;2023-02-02T08:55:59;97805.73;;;5.97;67.62
57847;BME280;43675;50.030;21.952;2023-02-02T08:58:27;97808.26;;;6.07;67.35
57847;BME280;43675;50.030;21.952;2023-02-02T09:00:53;97800.85;;;6.23;67.17
57847;BME280;43675;50.030;21.952;2023-02-02T09:03:20;97803.09;;;6.31;66.78
57847;BME280;43675;50.030;21.952;2023-02-02T09:05:47;97802.36;;;6.27;66.72
57847;BME280;43675;50.030;21.952;2023-02-02T09:08:13;97804.42;;;6.21;66.84
57847;BME280;43675;50.030;21.952;2023-02-02T09:10:40;97807.63;;;6.12;66.64
57847;BME280;43675;50.030;21.952;2023-02-02T09:13:06;97804.16;;;6.05;66.73
57847;BME280;43675;50.030;21.952;2023-02-02T09:15:33;97803.98;;;5.96;66.65
57847;BME280;43675;50.030;21.952;2023-02-02T09:17:59;97799.33;;;5.88;66.55
57847;BME280;43675;50.030;21.952;2023-02-02T09:20:26;97797.79;;;5.83;66.54
57847;BME280;43675;50.030;21.952;2023-02-02T09:22:55;97800.83;;;5.76;66.45
57847;BME280;43675;50.030;21.952;2023-02-02T09:25:23;97800.86;;;5.74;66.39
57847;BME280;43675;50.030;21.952;2023-02-02T09:27:50;97799.21;;;5.87;66.13
57847;BME280;43675;50.030;21.952;2023-02-02T09:30:17;97797.41;;;5.95;65.79
57847;BME280;43675;50.030;21.952;2023-02-02T09:32:43;97800.14;;;5.99;65.77
57847;BME280;43675;50.030;21.952;2023-02-02T09:35:10;97799.05;;;5.97;65.78
57847;BME280;43675;50.030;21.952;2023-02-02T09:37:36;97796.90;;;5.84;65.98
57847;BME280;43675;50.030;21.952;2023-02-02T09:40:04;97789.65;;;5.76;66.03
57847;BME280;43675;50.030;21.952;2023-02-02T09:42:36;97793.54;;;5.64;65.99
57847;BME280;43675;50.030;21.952;2023-02-02T09:45:21;97798.68;;;5.46;66.06
57847;BME280;43675;50.030;21.952;2023-02-02T09:47:53;97801.29;;;5.31;66.47
57847;BME280;43675;50.030;21.952;2023-02-02T09:50:40;97792.02;;;5.23;66.43
57847;BME280;43675;50.030;21.952;2023-02-02T09:53:43;97791.64;;;5.15;66.72
57847;BME280;43675;50.030;21.952;2023-02-02T09:56:20;97789.16;;;5.08;66.85
57847;BME280;43675;50.030;21.952;2023-02-02T09:58:55;97783.64;;;5.06;66.82
57847;BME280;43675;50.030;21.952;2023-02-02T10:01:33;97786.77;;;4.99;66.90
57847;BME280;43675;50.030;21.952;2023-02-02T10:04:16;97784.23;;;5.13;67.00
57847;BME280;43675;50.030;21.952;2023-02-02T10:06:48;97783.89;;;5.30;66.61
57847;BME280;43675;50.030;21.952;2023-02-02T10:09:41;97781.30;;;5.31;66.73
57847;BME280;43675;50.030;21.952;2023-02-02T10:12:37;97773.59;;;5.34;67.10
57847;BME280;43675;50.030;21.952;2023-02-02T10:17:48;97768.67;;;5.71;66.57
57847;BME280;43675;50.030;21.952;2023-02-02T10:22:49;97768.66;;;5.91;66.09
57847;BME280;43675;50.030;21.952;2023-02-02T10:25:16;97767.22;;;5.93;65.95
57847;BME280;43675;50.030;21.952;2023-02-02T10:28:02;97762.41;;;5.75;66.01
57847;BME280;43675;50.030;21.952;2023-02-02T10:30:57;97764.50;;;5.57;66.17
57847;BME280;43675;50.030;21.952;2023-02-02T10:33:35;97762.01;;;5.47;66.43
57847;BME280;43675;50.030;21.952;2023-02-02T10:36:11;97759.98;;;5.31;66.63
57847;BME280;43675;50.030;21.952;2023-02-02T10:41:39;97762.14;;;5.18;67.14
57847;BME280;43675;50.030;21.952;2023-02-02T10:46:39;97758.85;;;5.29;67.05
57847;BME280;43675;50.030;21.952;2023-02-02T10:51:40;97760.00;;;5.33;66.95
57847;BME280;43675;50.030;21.952;2023-02-02T10:54:31;97753.20;;;5.28;66.93
57847;BME280;43675;50.030;21.952;2023-02-02T10:57:03;97761.17;;;5.04;67.43
57847;BME280;43675;50.030;21.952;2023-02-02T10:59:40;97760.48;;;5.00;67.34
57847;BME280;43675;50.030;21.952;2023-02-02T11:02:11;97758.13;;;4.96;67.47
57847;BME280;43675;50.030;21.952;2023-02-02T11:04:38;97758.89;;;4.91;67.54
57847;BME280;43675;50.030;21.952;2023-02-02T11:07:05;97753.13;;;4.87;67.57
57847;BME280;43675;50.030;21.952;2023-02-02T11:09:38;97752.64;;;4.78;67.70
57847;BME280;43675;50.030;21.952;2023-02-02T11:17:27;97748.55;;;4.64;68.05
57847;BME280;43675;50.030;21.952;2023-02-02T11:19:53;97752.12;;;4.55;68.04
57847;BME280;43675;50.030;21.952;2023-02-02T11:22:36;97751.96;;;4.47;68.32
57847;BME280;43675;50.030;21.952;2023-02-02T11:25:25;97752.01;;;4.21;68.54
57847;BME280;43675;50.030;21.952;2023-02-02T11:27:52;97751.59;;;3.97;69.08
57847;BME280;43675;50.030;21.952;2023-02-02T11:30:35;97751.54;;;3.96;69.40
57847;BME280;43675;50.030;21.952;2023-02-02T11:36:02;97750.78;;;3.99;69.10
57847;BME280;43675;50.030;21.952;2023-02-02T11:38:30;97749.63;;;3.98;69.34
57847;BME280;43675;50.030;21.952;2023-02-02T11:41:04;97747.34;;;3.97;69.28
57847;BME280;43675;50.030;21.952;2023-02-02T11:46:04;97744.02;;;3.95;69.49
57847;BME280;43675;50.030;21.952;2023-02-02T11:48:37;97739.30;;;3.92;69.49
57847;BME280;43675;50.030;21.952;2023-02-02T11:51:05;97741.65;;;3.88;69.42
57847;BME280;43675;50.030;21.952;2023-02-02T11:53:44;97742.38;;;3.80;69.68
57847;BME280;43675;50.030;21.952;2023-02-02T11:56:23;97736.65;;;3.74;69.64
57847;BME280;43675;50.030;21.952;2023-02-02T11:58:51;97738.25;;;3.69;70.06
57847;BME280;43675;50.030;21.952;2023-02-02T12:01:23;97740.78;;;3.69;70.22
57847;BME280;43675;50.030;21.952;2023-02-02T12:03:51;97739.82;;;3.71;70.47
57847;BME280;43675;50.030;21.952;2023-02-02T12:06:25;97735.59;;;3.79;70.63
57847;BME280;43675;50.030;21.952;2023-02-02T12:08:56;97736.33;;;3.89;70.37
57847;BME280;43675;50.030;21.952;2023-02-02T12:11:33;97736.85;;;3.93;70.54
57847;BME280;43675;50.030;21.952;2023-02-02T12:17:10;97741.34;;;3.99;70.25
57847;BME280;43675;50.030;21.952;2023-02-02T12:34:21;97744.90;;;3.75;70.64
57847;BME280;43675;50.030;21.952;2023-02-02T12:36:59;97751.59;;;3.68;70.91
57847;BME280;43675;50.030;21.952;2023-02-02T12:40:00;97745.55;;;3.56;71.02
57847;BME280;43675;50.030;21.952;2023-02-02T12:47:53;97755.57;;;3.33;72.01
57847;BME280;43675;50.030;21.952;2023-02-02T12:50:29;97757.38;;;3.21;72.04
57847;BME280;43675;50.030;21.952;2023-02-02T12:53:13;97757.75;;;3.26;72.08
57847;BME280;43675;50.030;21.952;2023-02-02T12:59:24;97758.75;;;3.24;72.21
57847;BME280;43675;50.030;21.952;2023-02-02T13:01:34;97761.73;;;3.04;72.39
57847;BME280;43675;50.030;21.952;2023-02-02T13:12:18;97783.43;;;2.63;73.57
57847;BME280;43675;50.030;21.952;2023-02-02T13:14:49;97789.56;;;2.58;74.09
57847;BME280;43675;50.030;21.952;2023-02-02T13:22:44;97803.26;;;2.48;74.84
57847;BME280;43675;50.030;21.952;2023-02-02T13:25:27;97801.42;;;2.46;75.17
57847;BME280;43675;50.030;21.952;2023-02-02T13:27:58;97803.45;;;2.45;75.17
57847;BME280;43675;50.030;21.952;2023-02-02T13:32:57;97814.41;;;2.64;74.95
57847;BME280;43675;50.030;21.952;2023-02-02T13:40:45;97819.34;;;2.99;74.46
57847;BME280;43675;50.030;21.952;2023-02-02T13:44:05;97822.95;;;3.01;74.70
57847;BME280;43675;50.030;21.952;2023-02-02T13:46:56;97822.81;;;3.06;74.71
57847;BME280;43675;50.030;21.952;2023-02-02T13:49:32;97828.16;;;3.11;74.51
57847;BME280;43675;50.030;21.952;2023-02-02T14:01:08;97851.45;;;2.82;75.10
57847;BME280;43675;50.030;21.952;2023-02-02T14:03:41;97853.79;;;2.77;75.65
57847;BME280;43675;50.030;21.952;2023-02-02T14:08:35;97863.19;;;2.96;75.03
57847;BME280;43675;50.030;21.952;2023-02-02T14:11:04;97862.56;;;3.05;75.13
57847;BME280;43675;50.030;21.952;2023-02-02T14:16:03;97869.48;;;3.12;75.14
57847;BME280;43675;50.030;21.952;2023-02-02T14:24:01;97886.67;;;3.03;75.15
57847;BME280;43675;50.030;21.952;2023-02-02T14:26:50;97894.45;;;2.98;75.17
57847;BME280;43675;50.030;21.952;2023-02-02T14:31:55;97898.92;;;2.95;75.53
57847;BME280;43675;50.030;21.952;2023-02-02T14:34:36;97900.41;;;2.92;75.74
57847;BME280;43675;50.030;21.952;2023-02-02T14:45:38;97924.85;;;2.83;75.97
57847;BME280;43675;50.030;21.952;2023-02-02T14:53:24;97940.84;;;2.80;76.36
57847;BME280;43675;50.030;21.952;2023-02-02T14:58:24;97948.80;;;2.80;76.60
57847;BME280;43675;50.030;21.952;2023-02-02T15:01:22;97952.44;;;2.80;76.70
57847;BME280;43675;50.030;21.952;2023-02-02T15:06:24;97966.38;;;2.80;76.37
57847;BME280;43675;50.030;21.952;2023-02-02T15:22:44;98000.71;;;2.12;78.04
57847;BME280;43675;50.030;21.952;2023-02-02T15:33:54;98032.39;;;2.32;78.15
57847;BME280;43675;50.030;21.952;2023-02-02T15:36:32;98042.27;;;2.41;77.97
57847;BME280;43675;50.030;21.952;2023-02-02T15:39:09;98044.04;;;2.47;77.96
57847;BME280;43675;50.030;21.952;2023-02-02T15:41:41;98053.66;;;2.52;77.84
57847;BME280;43675;50.030;21.952;2023-02-02T15:44:26;98059.71;;;2.58;77.99
57847;BME280;43675;50.030;21.952;2023-02-02T15:46:54;98072.00;;;2.63;77.99
57847;BME280;43675;50.030;21.952;2023-02-02T15:49:26;98084.36;;;2.67;78.16
57847;BME280;43675;50.030;21.952;2023-02-02T15:51:54;98085.67;;;2.71;77.74
57847;BME280;43675;50.030;21.952;2023-02-02T15:54:34;98096.47;;;2.72;78.07
57847;BME280;43675;50.030;21.952;2023-02-02T15:57:01;98108.04;;;2.75;78.06
57847;BME280;43675;50.030;21.952;2023-02-02T15:59:37;98122.86;;;2.67;77.85